createdAt,value
2022-08-12T00:02:05.659Z,16.20
2022-08-12T00:07:27.789Z,16.20
2022-08-12T00:12:48.819Z,16.40
2022-08-12T00:18:12.058Z,16.50
2022-08-12T00:23:33.789Z,16.70
2022-08-12T00:28:54.713Z,16.80
2022-08-12T00:34:17.470Z,16.60
2022-08-12T00:39:39.059Z,16.40
2022-08-12T00:44:44.091Z,16.20
2022-08-12T00:49:52.342Z,16.00
2022-08-12T00:54:58.097Z,16.00
2022-08-12T01:00:03.417Z,16.00
2022-08-12T01:05:30.948Z,15.90
2022-08-12T01:10:56.280Z,16.00
2022-08-12T01:16:02.936Z,15.90
2022-08-12T01:21:16.839Z,15.90
2022-08-12T01:26:25.578Z,15.80
2022-08-12T01:31:30.650Z,15.60
2022-08-12T01:36:40.856Z,15.50
2022-08-12T01:41:53.732Z,15.30
2022-08-12T01:47:05.853Z,15.20
2022-08-12T01:52:22.430Z,15.10
2022-08-12T01:57:58.989Z,15.10
2022-08-12T02:03:14.280Z,15.00
2022-08-12T02:08:45.595Z,14.90
2022-08-12T02:14:10.986Z,14.80
2022-08-12T02:19:27.787Z,14.60
2022-08-12T02:24:33.904Z,14.50
2022-08-12T02:29:40.818Z,14.30
2022-08-12T02:34:45.926Z,14.10
2022-08-12T02:39:51.061Z,13.90
2022-08-12T02:44:57.771Z,13.80
2022-08-12T02:50:04.861Z,13.70
2022-08-12T02:55:28.819Z,13.50
2022-08-12T03:00:41.188Z,13.30
2022-08-12T03:05:52.482Z,13.10
2022-08-12T03:10:58.869Z,12.90
2022-08-12T03:16:07.759Z,12.70
2022-08-12T03:21:13.553Z,12.70
2022-08-12T03:26:16.980Z,12.60
2022-08-12T03:31:24.642Z,12.60
2022-08-12T03:36:30.591Z,12.60
2022-08-12T03:41:35.419Z,12.60
2022-08-12T03:47:00.823Z,12.50
2022-08-12T03:52:22.550Z,12.40
2022-08-12T03:57:44.431Z,12.40
2022-08-12T04:03:01.676Z,12.20
2022-08-12T04:08:08.980Z,12.20
2022-08-12T04:13:19.644Z,12.20
2022-08-12T04:18:24.714Z,12.10
2022-08-12T04:23:28.835Z,12.00
2022-08-12T04:28:32.219Z,12.00
2022-08-12T04:33:38.318Z,12.10
2022-08-12T04:38:43.286Z,12.20
2022-08-12T04:43:59.671Z,12.40
2022-08-12T04:49:07.417Z,12.50
2022-08-12T04:54:10.777Z,12.50
2022-08-12T04:59:17.230Z,12.40
2022-08-12T05:04:25.701Z,12.50
2022-08-12T05:09:59.445Z,12.50
2022-08-12T05:14:52.620Z,12.60
2022-08-12T05:20:04.972Z,12.80
2022-08-12T05:25:11.986Z,13.10
2022-08-12T05:30:19.234Z,13.20
2022-08-12T05:35:31.610Z,13.30
2022-08-12T05:40:34.981Z,13.50
2022-08-12T05:45:44.258Z,13.70
2022-08-12T05:50:50.190Z,13.80
2022-08-12T05:55:55.637Z,14.00
2022-08-12T06:00:59.914Z,14.10
2022-08-12T06:06:27.779Z,14.20
2022-08-12T06:11:34.498Z,14.50
2022-08-12T06:16:38.899Z,14.80
2022-08-12T06:21:43.934Z,16.20
2022-08-12T06:26:47.177Z,22.20
2022-08-12T06:31:52.412Z,27.40
2022-08-12T06:36:57.027Z,31.10
2022-08-12T06:42:31.654Z,33.10
2022-08-12T06:47:38.051Z,34.40
2022-08-12T06:52:42.639Z,35.00
2022-08-12T06:58:05.261Z,34.90
2022-08-12T07:03:23.164Z,36.30
2022-08-12T07:08:29.575Z,36.10
2022-08-12T07:14:04.751Z,36.60
2022-08-12T07:19:02.016Z,36.60
2022-08-12T07:24:08.835Z,36.00
2022-08-12T07:29:12.403Z,36.00
2022-08-12T07:34:17.221Z,35.60
2022-08-12T07:39:21.827Z,35.90
2022-08-12T07:44:25.932Z,36.80
2022-08-12T07:49:29.218Z,35.80
2022-08-12T07:54:34.748Z,34.90
2022-08-12T07:59:38.012Z,34.60
2022-08-12T08:05:06.899Z,36.10
2022-08-12T08:10:13.851Z,36.70
2022-08-12T08:15:18.047Z,36.00
2022-08-12T08:20:23.570Z,36.40
2022-08-12T08:25:36.255Z,34.90
2022-08-12T08:30:43.945Z,36.20
2022-08-12T08:35:49.300Z,34.60
2022-08-12T08:41:11.094Z,35.30
2022-08-12T08:46:14.527Z,33.80
2022-08-12T08:56:50.265Z,33.70
2022-08-12T09:01:53.727Z,33.90
2022-08-12T09:06:58.619Z,33.30
2022-08-12T09:12:27.637Z,34.60
2022-08-12T09:17:39.973Z,35.00
2022-08-12T09:22:49.073Z,34.40
2022-08-12T09:27:57.539Z,32.90
2022-08-12T09:34:25.677Z,33.20
2022-08-12T09:38:59.125Z,33.10
2022-08-12T09:44:39.250Z,32.90
2022-08-12T09:49:44.242Z,32.70
2022-08-12T09:54:50.164Z,33.90
2022-08-12T10:00:12.874Z,33.40
2022-08-12T10:06:20.375Z,33.60
2022-08-12T10:11:20.513Z,33.10
2022-08-12T10:16:29.244Z,32.20
2022-08-12T10:21:37.693Z,31.60
2022-08-12T10:27:06.070Z,31.60
2022-08-12T10:32:22.055Z,31.00
2022-08-12T10:38:34.557Z,29.70
2022-08-12T10:43:07.920Z,29.50
2022-08-12T10:48:33.678Z,29.40
2022-08-12T10:53:45.458Z,29.30
2022-08-12T10:58:50.483Z,29.70
2022-08-12T11:04:23.265Z,29.60
2022-08-12T11:09:51.226Z,30.00
2022-08-12T11:14:49.076Z,30.00
2022-08-12T11:19:55.953Z,29.90
2022-08-12T11:24:59.398Z,30.20
2022-08-12T11:30:31.453Z,29.00
2022-08-12T11:35:36.601Z,29.10
2022-08-12T11:40:42.627Z,29.20
2022-08-12T11:45:47.529Z,29.20
2022-08-12T11:50:52.928Z,30.10
2022-08-12T11:55:56.335Z,30.20
2022-08-12T12:02:02.279Z,30.80
2022-08-12T12:06:28.258Z,30.10
2022-08-12T12:11:48.833Z,28.70
2022-08-12T12:16:54.308Z,29.30
2022-08-12T12:21:59.003Z,28.80
2022-08-12T12:27:04.258Z,28.10
2022-08-12T12:32:10.057Z,28.70
2022-08-12T12:38:03.326Z,29.30
2022-08-12T12:42:43.950Z,28.20
2022-08-12T12:47:58.946Z,29.10
2022-08-12T12:53:03.587Z,30.30
2022-08-12T12:58:11.342Z,30.50
2022-08-12T13:03:23.421Z,29.50
2022-08-12T13:08:35.512Z,28.80
2022-08-12T13:14:06.760Z,29.00
2022-08-12T13:19:07.858Z,30.00
2022-08-12T13:24:12.602Z,30.00
2022-08-12T13:29:18.082Z,30.00
2022-08-12T13:34:33.386Z,30.10
2022-08-12T13:39:40.182Z,30.00
2022-08-12T13:44:43.887Z,29.50
2022-08-12T13:49:53.784Z,29.20
2022-08-12T13:55:06.142Z,29.50
2022-08-12T14:00:12.858Z,30.20
2022-08-12T14:05:31.208Z,29.40
2022-08-12T14:10:51.066Z,28.60
2022-08-12T14:15:57.545Z,28.70
2022-08-12T14:21:04.326Z,28.90
2022-08-12T14:26:21.525Z,29.00
2022-08-12T14:31:31.475Z,29.10
2022-08-12T14:36:35.356Z,29.30
2022-08-12T14:41:50.321Z,29.20
2022-08-12T14:47:09.108Z,29.10
2022-08-12T14:53:11.458Z,29.30
2022-08-12T14:57:56.496Z,29.20
2022-08-12T15:03:03.868Z,29.40
2022-08-12T15:08:12.613Z,29.20
2022-08-12T15:13:20.067Z,29.70
2022-08-12T15:18:31.647Z,29.90
2022-08-12T15:23:55.007Z,29.90
2022-08-12T15:29:00.351Z,29.00
2022-08-12T15:34:06.832Z,28.70
2022-08-12T15:39:16.703Z,28.60
2022-08-12T15:44:38.905Z,28.30
2022-08-12T15:49:54.441Z,28.00
2022-08-12T15:55:06.250Z,27.30
2022-08-12T16:06:11.988Z,26.40
2022-08-12T16:11:15.291Z,26.10
2022-08-12T16:16:24.737Z,25.90
2022-08-12T16:21:51.229Z,25.70
2022-08-12T16:26:54.259Z,25.50
2022-08-12T16:32:03.851Z,25.60
2022-08-12T16:37:08.791Z,26.00
2022-08-12T16:42:13.554Z,26.70
2022-08-12T16:47:21.905Z,27.20
2022-08-12T16:52:25.146Z,27.00
2022-08-12T16:57:34.812Z,26.60
2022-08-12T17:02:40.459Z,26.60
2022-08-12T17:07:47.198Z,26.30
2022-08-12T17:12:55.425Z,26.00
2022-08-12T17:18:38.901Z,25.90
2022-08-12T17:23:33.246Z,25.70
2022-08-12T17:28:53.330Z,25.40
2022-08-12T17:34:00.586Z,25.40
2022-08-12T17:39:09.525Z,25.20
2022-08-12T17:44:14.680Z,25.00
2022-08-12T17:50:02.298Z,24.90
2022-08-12T17:54:46.466Z,24.80
2022-08-12T17:59:51.590Z,24.60
2022-08-12T18:05:05.311Z,24.30
2022-08-12T18:10:14.646Z,24.10
2022-08-12T18:15:26.713Z,23.90
2022-08-12T18:20:45.073Z,23.70
2022-08-12T18:26:16.454Z,23.40
2022-08-12T18:31:24.138Z,23.10
2022-08-12T18:36:54.954Z,22.70
2022-08-12T18:42:00.617Z,22.30
2022-08-12T18:47:09.686Z,21.90
2022-08-12T18:52:19.734Z,21.50
2022-08-12T18:58:07.770Z,21.20
2022-08-12T19:02:50.075Z,20.90
2022-08-12T19:08:01.043Z,20.50
2022-08-12T19:13:25.395Z,20.10
2022-08-12T19:18:40.440Z,19.40
2022-08-12T19:24:05.607Z,19.10
2022-08-12T19:29:10.900Z,18.80
2022-08-12T19:40:09.228Z,18.50
2022-08-12T19:45:06.961Z,18.20
2022-08-12T19:50:20.314Z,18.20
2022-08-12T19:55:29.272Z,18.40
2022-08-12T20:00:42.281Z,19.20
2022-08-12T20:06:04.637Z,19.80
2022-08-12T20:12:11.335Z,20.30
2022-08-12T20:16:57.450Z,20.30
2022-08-12T20:22:02.496Z,20.10
2022-08-12T20:27:28.761Z,19.70
2022-08-12T20:32:37.396Z,19.60
2022-08-12T20:38:07.485Z,19.60
2022-08-12T20:43:19.099Z,19.70
2022-08-12T20:48:29.303Z,19.90
2022-08-12T20:53:57.533Z,20.00
2022-08-12T20:59:00.105Z,20.00
2022-08-12T21:04:21.669Z,19.90
2022-08-12T21:09:27.637Z,19.70
2022-08-12T21:14:39.673Z,19.60
2022-08-12T21:19:57.442Z,19.30
2022-08-12T21:25:02.517Z,18.90
2022-08-12T21:30:19.491Z,18.70
2022-08-12T21:35:25.330Z,18.70
2022-08-12T21:40:37.636Z,18.80
2022-08-12T21:46:01.398Z,19.00
2022-08-12T21:51:08.738Z,19.00
2022-08-12T21:56:34.959Z,18.90
2022-08-12T22:01:48.789Z,18.90
2022-08-12T22:06:54.434Z,18.80
2022-08-12T22:12:24.378Z,18.60
2022-08-12T22:17:50.493Z,18.70
2022-08-12T22:23:00.386Z,18.60
2022-08-12T22:28:24.798Z,18.60
2022-08-12T22:33:30.551Z,18.50
2022-08-12T22:38:55.299Z,18.40
2022-08-12T22:44:24.834Z,18.50
2022-08-12T22:49:37.101Z,18.40
2022-08-12T22:55:02.674Z,18.40
2022-08-12T23:00:24.048Z,18.20
2022-08-12T23:05:57.700Z,17.80
2022-08-12T23:10:56.279Z,17.50
2022-08-12T23:16:02.628Z,17.20
2022-08-12T23:21:13.549Z,17.00
2022-08-12T23:26:40.261Z,16.80
2022-08-12T23:32:03.603Z,16.70
2022-08-12T23:37:11.212Z,16.50
2022-08-12T23:42:17.667Z,16.50
2022-08-12T23:47:23.002Z,16.40
2022-08-12T23:52:34.707Z,16.30
2022-08-12T23:57:51.111Z,16.40
